Time;durP1;ratioP1;P1;durP2;ratioP2;P2;SDS_P1;SDS_P2;PMS_P1;PMS_P2;Temp;Humidity;BMP_temperature;BMP_pressure;BME280_temperature;BME280_humidity;BME280_pressure;Samples;Min_cycle;Max_cycle;Signal;HPM_P1;HPM_P2
2022/05/06 00:02:26;;;;;;;20.67;17.30;;;13.20;58.50;;;;;;5035621;28;20485;-48
2022/05/06 00:04:56;;;;;;;21.48;16.55;;;13.20;58.70;;;;;;5035995;28;20037;-50
2022/05/06 00:07:30;;;;;;;20.27;16.88;;;13.10;58.60;;;;;;5041974;28;20057;-47
2022/05/06 00:09:57;;;;;;;22.35;16.95;;;13.20;59.00;;;;;;5044979;28;20029;-47
2022/05/06 00:12:25;;;;;;;22.52;16.63;;;13.10;58.60;;;;;;5035014;28;20041;-46
2022/05/06 00:14:55;;;;;;;20.05;17.20;;;13.00;58.60;;;;;;5037833;28;20412;-49
2022/05/06 00:17:26;;;;;;;20.00;16.27;;;13.00;58.70;;;;;;5040080;28;20052;-46
2022/05/06 00:19:53;;;;;;;21.75;17.13;;;13.00;58.80;;;;;;5029502;28;20148;-46
2022/05/06 00:22:22;;;;;;;20.98;18.20;;;13.00;58.70;;;;;;5031618;28;20476;-50
2022/05/06 00:24:51;;;;;;;24.63;17.98;;;12.90;58.80;;;;;;5042074;28;20404;-48
2022/05/06 00:27:21;;;;;;;26.02;20.10;;;12.90;59.20;;;;;;5049679;28;20048;-48
2022/05/06 00:29:49;;;;;;;25.02;20.33;;;12.90;59.40;;;;;;5044972;28;20030;-48
2022/05/06 00:32:22;;;;;;;25.27;21.45;;;12.80;59.50;;;;;;5017808;28;20443;-48
2022/05/06 00:34:49;;;;;;;24.52;19.25;;;12.90;59.50;;;;;;5037761;28;20034;-50
2022/05/06 00:37:21;;;;;;;26.40;21.10;;;12.80;59.40;;;;;;4994907;28;20046;-47
2022/05/06 00:39:48;;;;;;;27.63;19.63;;;12.80;60.00;;;;;;5008809;28;20037;-50
2022/05/06 00:42:15;;;;;;;24.05;19.10;;;12.80;59.40;;;;;;5004976;28;20096;-46
2022/05/06 00:44:42;;;;;;;24.80;20.33;;;12.80;59.40;;;;;;5023377;28;20046;-48
2022/05/06 00:47:09;;;;;;;23.33;18.80;;;12.80;59.30;;;;;;5008992;28;20493;-46
2022/05/06 00:49:39;;;;;;;23.83;19.63;;;12.80;59.30;;;;;;5027217;28;20701;-49
2022/05/06 00:52:09;;;;;;;23.77;19.08;;;12.80;59.20;;;;;;5011443;28;20092;-49
2022/05/06 00:54:38;;;;;;;22.88;19.70;;;12.70;59.20;;;;;;5032796;28;20079;-48
2022/05/06 00:57:07;;;;;;;24.15;20.65;;;12.70;59.20;;;;;;5050346;28;20052;-47
2022/05/06 01:02:29;;;;;;;25.52;19.63;;;12.60;59.30;;;;;;5021469;28;20050;-47
2022/05/06 01:05:01;;;;;;;;;;;12.60;59.00;;;;;;5030508;28;20128;-48
2022/05/06 01:07:29;;;;;;;21.67;18.20;;;12.60;59.10;;;;;;5019656;28;19925;-48
2022/05/06 01:09:59;;;;;;;23.05;18.40;;;12.60;58.50;;;;;;5002893;28;20092;-46
2022/05/06 01:12:26;;;;;;;24.05;18.52;;;12.50;58.80;;;;;;5011313;28;20140;-49
2022/05/06 01:14:55;;;;;;;22.85;19.80;;;12.50;58.90;;;;;;5027305;28;20493;-51
2022/05/06 01:17:35;;;;;;;21.67;18.00;;;12.50;58.90;;;;;;5017686;28;20141;-50
2022/05/06 01:20:04;;;;;;;21.42;17.77;;;12.40;58.90;;;;;;5032100;28;20548;-46
2022/05/06 01:22:33;;;;;;;21.25;18.42;;;12.40;59.00;;;;;;5029319;28;20053;-49
2022/05/06 01:25:03;;;;;;;22.70;18.48;;;12.40;59.60;;;;;;5028618;28;20065;-47
2022/05/06 01:27:36;;;;;;;21.75;17.90;;;12.40;59.10;;;;;;5027127;28;20573;-52
2022/05/06 01:30:04;;;;;;;;;;;12.30;59.20;;;;;;5038720;28;20037;-50
2022/05/06 01:32:34;;;;;;;18.17;15.68;;;12.30;59.20;;;;;;5038590;28;19921;-47
2022/05/06 01:35:05;;;;;;;21.67;17.63;;;12.30;58.60;;;;;;5042617;28;20073;-46
2022/05/06 01:37:37;;;;;;;23.77;18.30;;;12.20;58.90;;;;;;5048080;23;20037;31
2022/05/06 01:40:18;;;;;;;25.10;19.02;;;12.20;59.40;;;;;;4983580;28;20081;-48
2022/05/06 01:42:55;;;;;;;24.60;18.63;;;12.20;59.20;;;;;;4975969;28;20042;-47
2022/05/06 01:45:29;;;;;;;21.48;18.90;;;12.10;59.20;;;;;;4981674;28;20053;-49
2022/05/06 01:48:02;;;;;;;20.58;17.77;;;12.10;59.30;;;;;;4972763;28;20656;-50
2022/05/06 01:50:40;;;;;;;22.40;17.05;;;12.10;59.20;;;;;;5008235;28;20048;-49
2022/05/06 01:53:14;;;;;;;23.17;18.80;;;12.10;59.20;;;;;;5007525;28;20094;-54
2022/05/06 01:55:45;;;;;;;23.23;19.17;;;12.00;59.10;;;;;;4970160;28;20042;-50
2022/05/06 01:58:13;;;;;;;23.20;18.98;;;12.00;59.20;;;;;;4996612;28;20060;-51
2022/05/06 02:00:49;;;;;;;24.88;19.25;;;11.90;59.20;;;;;;5007932;28;20053;-49
2022/05/06 02:06:11;;;;;;;22.85;17.88;;;11.90;59.30;;;;;;4976120;28;20049;-50
2022/05/06 02:08:41;;;;;;;23.45;19.42;;;11.80;59.20;;;;;;4998011;28;20092;-51
2022/05/06 02:11:18;;;;;;;25.20;18.85;;;11.90;59.40;;;;;;5007303;28;20049;-49
2022/05/06 02:13:52;;;;;;;21.77;19.05;;;11.80;59.30;;;;;;4985721;28;20042;-49
2022/05/06 02:16:37;;;;;;;24.48;19.35;;;11.80;60.00;;;;;;4999470;28;20058;-51
2022/05/06 02:19:32;;;;;;;22.35;18.60;;;11.80;59.30;;;;;;4991308;28;20572;-50
2022/05/06 02:22:17;;;;;;;23.48;19.50;;;11.80;59.20;;;;;;4991275;28;20072;-50
2022/05/06 02:25:00;;;;;;;24.48;20.42;;;11.70;59.20;;;;;;4999866;28;20052;-49
2022/05/06 02:27:36;;;;;;;26.02;19.85;;;11.70;59.90;;;;;;4970404;28;20050;-46
2022/05/06 02:33:14;;;;;;;24.23;19.80;;;11.70;59.40;;;;;;4996348;28;20553;-48
2022/05/06 02:35:53;;;;;;;29.30;22.70;;;11.60;59.40;;;;;;4989398;28;20046;-49
2022/05/06 02:38:30;;;;;;;28.13;22.13;;;11.60;59.50;;;;;;5013650;28;20046;-49
2022/05/06 02:41:00;;;;;;;24.55;19.48;;;11.60;59.50;;;;;;4992137;28;20146;-49
2022/05/06 02:43:33;;;;;;;27.13;21.40;;;11.60;59.40;;;;;;4991694;28;20038;-48
2022/05/06 02:46:02;;;;;;;26.50;20.98;;;11.60;59.50;;;;;;5008004;28;20541;-48
2022/05/06 02:48:35;;;;;;;28.40;20.88;;;11.50;59.40;;;;;;4979318;28;20042;-47
2022/05/06 02:51:05;;;;;;;23.17;20.10;;;11.50;59.30;;;;;;4990093;28;20052;-46
2022/05/06 02:53:36;;;;;;;27.55;21.45;;;11.50;59.40;;;;;;5000947;28;20121;-47
2022/05/06 02:56:06;;;;;;;28.75;21.58;;;11.50;59.50;;;;;;5004924;28;20046;-47
2022/05/06 02:58:45;;;;;;;23.98;18.98;;;11.40;59.50;;;;;;5012347;28;20524;-47
2022/05/06 03:01:14;;;;;;;24.65;20.42;;;11.40;59.50;;;;;;5001367;28;20126;-45
2022/05/06 03:03:45;;;;;;;24.20;19.33;;;11.40;59.60;;;;;;5012835;28;20041;-47
2022/05/06 03:06:17;;;;;;;23.25;18.95;;;11.40;59.60;;;;;;4995882;28;20310;-51
2022/05/06 03:08:46;;;;;;;24.45;19.98;;;11.30;59.50;;;;;;4989728;28;20494;-48
2022/05/06 03:11:17;;;;;;;26.00;21.00;;;11.30;59.50;;;;;;5005686;28;20049;-47
2022/05/06 03:13:51;;;;;;;23.35;19.98;;;11.30;59.60;;;;;;5007263;28;20136;-47
2022/05/06 03:16:21;;;;;;;25.58;19.08;;;11.30;59.60;;;;;;5000605;28;20778;-47
2022/05/06 03:18:50;;;;;;;25.33;20.17;;;11.20;59.70;;;;;;5004586;28;20065;-51
2022/05/06 03:21:20;;;;;;;24.23;19.60;;;11.20;59.70;;;;;;4990425;28;20038;-47
2022/05/06 03:23:53;;;;;;;26.95;20.65;;;11.20;59.80;;;;;;4997764;28;20128;-48
2022/05/06 03:26:22;;;;;;;26.83;19.33;;;11.20;59.80;;;;;;5010477;28;20107;-48
2022/05/06 03:28:49;;;;;;;24.77;20.17;;;11.20;59.70;;;;;;4995398;28;20041;-48
2022/05/06 03:31:18;;;;;;;24.73;20.35;;;11.20;59.80;;;;;;5000945;28;20042;-49
2022/05/06 03:33:55;;;;;;;23.83;19.83;;;11.10;59.70;;;;;;5012442;28;20405;-47
2022/05/06 03:36:28;;;;;;;25.67;20.05;;;11.10;59.70;;;;;;5009781;28;20064;-47
2022/05/06 03:39:03;;;;;;;;;;;11.10;59.70;;;;;;4990684;28;20058;-47
2022/05/06 03:41:38;;;;;;;23.73;17.77;;;11.10;59.90;;;;;;4972800;28;19977;-50
2022/05/06 03:44:06;;;;;;;25.85;20.40;;;11.10;59.20;;;;;;4987125;28;20671;-47
2022/05/06 03:46:35;;;;;;;24.67;20.38;;;11.00;59.40;;;;;;4989493;28;20453;-50
2022/05/06 03:49:06;;;;;;;26.65;19.85;;;11.00;59.50;;;;;;4993086;28;20046;-50
2022/05/06 03:51:34;;;;;;;28.73;19.42;;;11.00;59.70;;;;;;4994043;28;20465;-51
2022/05/06 03:54:16;;;;;;;25.65;20.58;;;11.00;59.80;;;;;;4990538;28;20038;-51
2022/05/06 03:56:43;;;;;;;23.73;19.67;;;10.90;59.70;;;;;;4992212;28;20046;-49
2022/05/06 03:59:16;;;;;;;26.85;20.13;;;10.90;59.70;;;;;;4977528;28;20060;-50
2022/05/06 04:01:49;;;;;;;23.13;19.77;;;10.90;60.00;;;;;;5000233;28;20532;-49
2022/05/06 04:04:26;;;;;;;24.42;19.27;;;10.90;59.90;;;;;;5011031;28;20064;-47
2022/05/06 04:07:02;;;;;;;24.45;19.00;;;10.90;60.00;;;;;;5000858;28;20046;-50
2022/05/06 04:09:33;;;;;;;24.83;18.67;;;10.90;60.00;;;;;;5002931;28;20033;-49
2022/05/06 04:12:01;;;;;;;21.40;18.67;;;10.80;59.90;;;;;;5009919;28;20045;-50
2022/05/06 04:14:29;;;;;;;23.33;17.67;;;10.90;60.10;;;;;;5009199;28;20100;-48
2022/05/06 04:17:03;;;;;;;25.88;17.77;;;10.80;60.10;;;;;;4979687;28;20070;-48
2022/05/06 04:19:33;;;;;;;23.65;18.45;;;10.80;60.10;;;;;;4988833;28;20045;-46
2022/05/06 04:25:00;;;;;;;23.33;17.48;;;10.80;60.30;;;;;;4992524;28;20051;-51
2022/05/06 04:27:33;;;;;;;22.30;18.25;;;10.80;60.20;;;;;;4989455;28;20089;-47
2022/05/06 04:30:00;;;;;;;23.83;18.30;;;10.80;60.40;;;;;;4993682;28;20548;-50
2022/05/06 04:32:39;;;;;;;24.75;19.25;;;10.80;60.50;;;;;;4979231;28;20041;-47
2022/05/06 04:35:11;;;;;;;24.00;18.25;;;10.80;60.60;;;;;;4970659;28;20141;-50
2022/05/06 04:37:43;;;;;;;25.65;19.10;;;10.80;60.70;;;;;;4993752;28;20077;-51
2022/05/06 04:40:16;;;;;;;25.25;19.23;;;10.80;61.00;;;;;;4988928;28;20045;-50
2022/05/06 04:42:45;;;;;;;22.90;19.73;;;10.80;61.10;;;;;;4995019;28;20046;-48
2022/05/06 04:45:17;;;;;;;22.77;17.80;;;10.80;61.20;;;;;;4988096;28;20454;-45
2022/05/06 04:47:56;;;;;;;23.08;18.27;;;10.90;61.50;;;;;;4993770;28;20043;-50
2022/05/06 04:50:23;;;;;;;21.60;17.90;;;10.90;61.40;;;;;;4989076;28;20046;-48
2022/05/06 04:52:53;;;;;;;24.15;18.38;;;10.90;61.50;;;;;;4987201;28;20511;-46
2022/05/06 04:55:28;;;;;;;24.92;18.75;;;10.90;61.70;;;;;;4991090;28;20665;-47
2022/05/06 04:57:54;;;;;;;23.17;19.48;;;10.90;63.00;;;;;;4973560;28;20049;-49
2022/05/06 05:00:22;;;;;;;24.08;19.23;;;11.00;62.00;;;;;;4989847;28;20100;-48
2022/05/06 05:02:49;;;;;;;28.20;20.52;;;11.00;62.30;;;;;;4989059;28;20073;-48
2022/05/06 05:05:25;;;;;;;25.58;20.65;;;11.10;62.50;;;;;;4985772;28;20050;-51
2022/05/06 05:07:54;;;;;;;21.98;19.15;;;11.10;62.70;;;;;;4975702;28;20487;-46
2022/05/06 05:10:21;;;;;;;26.45;20.23;;;11.10;62.70;;;;;;4983991;28;20525;-50
2022/05/06 05:12:51;;;;;;;24.60;19.88;;;11.20;62.90;;;;;;4986820;28;20065;-46
2022/05/06 05:15:25;;;;;;;22.88;18.05;;;11.20;62.90;;;;;;4987354;28;20046;-48
2022/05/06 05:17:53;;;;;;;24.05;19.35;;;11.30;63.30;;;;;;4992317;28;20081;-50
2022/05/06 05:20:25;;;;;;;33.25;25.00;;;11.30;63.20;;;;;;4988379;28;20118;-47
2022/05/06 05:22:55;;;;;;;27.08;21.60;;;11.40;63.80;;;;;;4973309;28;20093;-48
2022/05/06 05:25:22;;;;;;;38.42;28.92;;;11.50;64.00;;;;;;4996064;28;20049;-48
2022/05/06 05:27:53;;;;;;;40.38;29.98;;;11.50;64.70;;;;;;4989918;28;20042;-51
2022/05/06 05:30:29;;;;;;;46.38;33.10;;;11.60;65.30;;;;;;4956204;28;20043;-50
2022/05/06 05:33:01;;;;;;;49.25;36.00;;;11.70;65.90;;;;;;4985381;28;20049;-47
2022/05/06 05:35:29;;;;;;;50.25;34.33;;;11.80;66.30;;;;;;4989417;28;20054;-45
2022/05/06 05:38:00;;;;;;;44.83;32.67;;;11.90;66.80;;;;;;4989078;28;20050;-44
2022/05/06 05:40:30;;;;;;;54.65;36.60;;;11.90;67.00;;;;;;4994085;28;20078;-49
2022/05/06 05:42:58;;;;;;;47.13;34.42;;;12.10;67.70;;;;;;4994399;28;20853;-45
2022/05/06 05:48:21;;;;;;;52.45;32.95;;;12.30;68.00;;;;;;4983419;28;20043;-49
2022/05/06 05:50:59;;;;;;;45.92;33.15;;;12.30;67.50;;;;;;4979913;28;20499;-50
2022/05/06 05:53:35;;;;;;;46.05;33.75;;;12.40;67.60;;;;;;4985772;28;20125;-47
2022/05/06 05:56:05;;;;;;;48.20;32.67;;;12.50;67.60;;;;;;4988667;28;20054;-49
2022/05/06 05:58:36;;;;;;;47.85;33.53;;;12.60;67.70;;;;;;4984378;28;20148;-50
2022/05/06 06:01:11;;;;;;;48.40;35.03;;;12.60;67.80;;;;;;4967974;28;20462;-50
2022/05/06 06:03:39;;;;;;;55.08;36.95;;;12.70;68.00;;;;;;4986643;28;20142;-50
2022/05/06 06:06:07;;;;;;;52.83;34.92;;;12.80;68.20;;;;;;4982938;28;20073;-46
2022/05/06 06:08:35;;;;;;;56.63;37.38;;;12.90;68.40;;;;;;4984660;28;20042;-47
2022/05/06 06:11:04;;;;;;;53.30;36.10;;;12.90;68.60;;;;;;4984875;28;20043;-47
2022/05/06 06:13:38;;;;;;;63.30;35.28;;;13.00;68.70;;;;;;4986287;28;20229;-49
2022/05/06 06:16:07;;;;;;;47.33;33.78;;;13.10;68.60;;;;;;4987903;28;20042;-50
2022/05/06 06:18:38;;;;;;;43.17;31.15;;;13.20;68.40;;;;;;4989174;28;20085;-47
2022/05/06 06:21:06;;;;;;;44.17;30.98;;;13.20;68.30;;;;;;4997284;28;20137;-49
2022/05/06 06:23:35;;;;;;;48.22;32.75;;;13.30;68.40;;;;;;4968229;28;20481;-46
2022/05/06 06:26:03;;;;;;;52.15;30.88;;;13.40;68.50;;;;;;4980325;28;20038;-48
2022/05/06 06:28:30;;;;;;;48.85;31.77;;;13.40;68.60;;;;;;4988291;28;20115;-50
2022/05/06 06:31:00;;;;;;;47.80;32.30;;;13.50;68.70;;;;;;4983086;28;20132;-49
2022/05/06 06:33:27;;;;;;;46.13;30.83;;;13.60;68.80;;;;;;5007131;28;20562;-47
2022/05/06 06:35:54;;;;;;;56.33;32.67;;;13.60;68.70;;;;;;4990027;28;20077;-43
2022/05/06 06:38:21;;;;;;;45.30;30.77;;;13.70;68.70;;;;;;4998220;28;20462;-51
2022/05/06 06:40:48;;;;;;;41.25;30.48;;;13.80;68.60;;;;;;5007868;28;20089;-47
2022/05/06 06:43:15;;;;;;;45.05;32.22;;;13.90;68.50;;;;;;5008574;28;20050;-49
2022/05/06 06:45:44;;;;;;;41.92;31.65;;;13.90;68.30;;;;;;4990637;28;20057;-45
2022/05/06 06:48:31;;;;;;;44.58;31.10;;;13.90;68.20;;;;;;4999245;28;20116;-46
2022/05/06 06:51:07;;;;;;;45.17;32.38;;;14.00;68.10;;;;;;4995118;28;20046;-45
2022/05/06 06:53:44;;;;;;;46.65;32.65;;;14.10;68.30;;;;;;4984792;28;20037;-47
2022/05/06 06:56:11;;;;;;;45.17;32.83;;;14.10;68.20;;;;;;4982142;28;20042;-48
2022/05/06 06:58:38;;;;;;;46.83;32.88;;;14.20;68.00;;;;;;5000061;28;20102;-47
2022/05/06 07:01:05;;;;;;;46.47;33.42;;;14.20;67.90;;;;;;4997990;28;20049;-46
2022/05/06 07:03:32;;;;;;;47.70;33.50;;;14.20;68.10;;;;;;4995494;28;20467;-45
2022/05/06 07:14:16;;;;;;;46.10;33.20;;;14.40;68.10;;;;;;4985753;28;20138;-46
2022/05/06 07:16:43;;;;;;;53.00;35.08;;;14.40;68.20;;;;;;5000755;28;20093;-47
2022/05/06 07:19:10;;;;;;;52.65;34.63;;;14.50;68.60;;;;;;5006766;28;20113;-45
2022/05/06 07:21:38;;;;;;;56.00;35.95;;;14.50;68.40;;;;;;4984389;28;20105;-46
2022/05/06 07:24:07;;;;;;;53.28;35.08;;;14.50;68.10;;;;;;4990253;28;20038;-46
2022/05/06 07:26:33;;;;;;;57.80;37.13;;;14.50;68.00;;;;;;5003692;28;20042;-45
2022/05/06 07:29:03;;;;;;;54.03;35.22;;;14.50;68.10;;;;;;5007643;28;20042;-47
2022/05/06 07:31:32;;;;;;;53.38;34.80;;;14.60;68.30;;;;;;4996413;28;20053;-47
2022/05/06 07:33:59;;;;;;;58.45;36.78;;;14.60;68.40;;;;;;4996144;28;20046;-47
2022/05/06 07:36:26;;;;;;;62.80;37.45;;;14.60;68.40;;;;;;4994558;28;20105;-48
2022/05/06 07:38:59;;;;;;;59.47;38.10;;;14.70;68.40;;;;;;4991128;28;20050;-47
2022/05/06 07:41:26;;;;;;;58.28;36.13;;;14.70;68.30;;;;;;4990093;28;20112;-47
2022/05/06 07:43:55;;;;;;;59.88;38.85;;;14.70;68.40;;;;;;4990159;28;20095;-50
2022/05/06 07:46:25;;;;;;;62.72;39.50;;;14.70;68.60;;;;;;5004521;28;20078;-49
2022/05/06 07:48:53;;;;;;;65.13;40.33;;;14.80;68.30;;;;;;5010916;28;20057;-50
2022/05/06 07:51:22;;;;;;;66.10;40.17;;;14.80;68.20;;;;;;4994609;28;20043;-51
2022/05/06 07:53:51;;;;;;;65.97;42.13;;;14.80;68.00;;;;;;5002238;28;20064;-50
2022/05/06 07:56:19;;;;;;;65.07;41.35;;;14.90;68.20;;;;;;4994016;28;20073;-50
2022/05/06 07:58:45;;;;;;;64.47;40.88;;;14.90;68.20;;;;;;5005294;28;20047;-49
2022/05/06 08:01:13;;;;;;;64.68;42.50;;;14.90;68.40;;;;;;4988647;28;20053;-50
2022/05/06 08:06:34;;;;;;;69.82;42.08;;;14.90;68.70;;;;;;4994417;28;20042;-50
2022/05/06 08:09:03;;;;;;;62.17;42.28;;;14.90;69.10;;;;;;4993278;28;20045;-51
2022/05/06 08:11:50;;;;;;;73.00;45.08;;;15.00;69.30;;;;;;4981491;28;20051;-51
2022/05/06 08:14:18;;;;;;;76.28;48.33;;;15.00;69.10;;;;;;4990761;28;20102;-50
2022/05/06 08:16:46;;;;;;;70.55;48.10;;;15.10;69.00;;;;;;4989237;28;20097;-49
2022/05/06 08:19:16;;;;;;;76.95;47.83;;;15.10;68.90;;;;;;4988587;28;20118;-44
2022/05/06 08:21:51;;;;;;;75.10;48.22;;;15.10;68.80;;;;;;4985555;28;20089;-46
2022/05/06 08:24:19;;;;;;;76.25;47.92;;;15.20;68.90;;;;;;4991146;28;20498;-47
2022/05/06 08:26:49;;;;;;;75.90;47.40;;;15.20;69.30;;;;;;4991010;28;20035;-47
2022/05/06 08:29:16;;;;;;;76.00;47.70;;;15.30;69.10;;;;;;4988236;28;20042;-47
2022/05/06 08:31:45;;;;;;;76.32;49.40;;;15.30;68.90;;;;;;4985476;28;20531;-47
2022/05/06 08:34:18;;;;;;;66.40;45.42;;;15.40;68.70;;;;;;4989049;28;20418;-50
2022/05/06 08:36:47;;;;;;;67.40;44.97;;;15.50;68.70;;;;;;4988222;28;20038;-48
2022/05/06 08:39:17;;;;;;;86.28;50.13;;;15.50;68.80;;;;;;4988382;28;20049;-49
2022/05/06 08:41:49;;;;;;;69.55;44.65;;;15.60;68.90;;;;;;4991026;28;20073;-49
2022/05/06 08:52:36;;;;;;;72.82;43.95;;;15.90;68.90;;;;;;4992360;28;20493;-47
2022/05/06 08:55:11;;;;;;;71.50;43.63;;;16.00;68.70;;;;;;4994546;28;20073;-47
2022/05/06 08:57:39;;;;;;;69.35;42.55;;;16.00;68.30;;;;;;4984403;28;20510;-45
2022/05/06 09:00:07;;;;;;;62.30;40.85;;;16.10;68.30;;;;;;4989996;28;20473;-48
2022/05/06 09:02:40;;;;;;;61.70;40.15;;;16.20;69.00;;;;;;4987432;28;20055;-47
2022/05/06 09:05:17;;;;;;;65.93;39.35;;;16.30;69.30;;;;;;4969985;28;20058;-47
2022/05/06 09:08:02;;;;;;;58.05;38.67;;;16.40;68.90;;;;;;4989388;28;20042;-48
2022/05/06 09:10:33;;;;;;;60.10;37.58;;;16.50;68.80;;;;;;4990863;28;20042;-45
2022/05/06 09:13:01;;;;;;;59.95;38.75;;;16.60;68.30;;;;;;4988027;28;20042;-47
2022/05/06 09:18:22;;;;;;;63.90;41.58;;;16.70;67.70;;;;;;4992630;28;20042;-48
2022/05/06 09:21:13;;;;;;;69.15;44.10;;;16.80;67.50;;;;;;4987997;28;20046;-47
2022/05/06 09:23:39;;;;;;;81.30;49.70;;;17.00;67.90;;;;;;4986308;28;20046;-48
2022/05/06 09:26:15;;;;;;;89.25;54.33;;;17.10;66.90;;;;;;4984587;28;20136;-47
2022/05/06 09:28:44;;;;;;;78.53;51.95;;;17.10;67.10;;;;;;4996736;28;20049;-47
2022/05/06 09:31:11;;;;;;;67.88;45.92;;;17.20;66.80;;;;;;4978011;28;20074;-48
2022/05/06 09:33:42;;;;;;;72.43;47.45;;;17.30;66.20;;;;;;4989965;28;20035;-48
2022/05/06 09:36:28;;;;;;;63.75;43.83;;;17.40;66.10;;;;;;4984490;28;20096;-48
2022/05/06 09:39:08;;;;;;;49.17;36.60;;;17.50;66.00;;;;;;4991689;28;20076;-45
2022/05/06 09:41:39;;;;;;;51.30;33.10;;;17.60;65.50;;;;;;4987834;28;20545;-51
2022/05/06 09:44:10;;;;;;;43.28;29.85;;;17.60;64.60;;;;;;4986659;28;20046;-50
2022/05/06 09:46:37;;;;;;;41.63;28.75;;;17.70;64.20;;;;;;4988739;28;20105;-51
2022/05/06 09:49:07;;;;;;;38.50;27.85;;;17.80;64.60;;;;;;4989999;28;20047;-49
2022/05/06 09:51:53;;;;;;;39.90;28.67;;;17.90;64.00;;;;;;4985226;28;20563;-51
2022/05/06 09:54:33;;;;;;;41.10;29.33;;;17.90;64.20;;;;;;4985197;28;20042;-51
2022/05/06 09:57:04;;;;;;;36.53;26.58;;;18.00;64.30;;;;;;4993662;28;20116;-51
2022/05/06 09:59:38;;;;;;;36.47;26.20;;;18.00;64.70;;;;;;4988741;28;20050;-49
2022/05/06 10:02:08;;;;;;;36.53;27.00;;;18.10;64.20;;;;;;4992762;28;20041;-51
2022/05/06 10:04:39;;;;;;;33.40;24.00;;;18.10;63.70;;;;;;4974134;28;20422;-50
2022/05/06 10:07:16;;;;;;;33.10;24.95;;;18.20;62.50;;;;;;4985080;28;20042;-48
2022/05/06 10:09:53;;;;;;;31.88;22.67;;;18.30;62.80;;;;;;4995671;28;20037;-47
2022/05/06 10:12:22;;;;;;;29.80;20.00;;;18.40;61.60;;;;;;4970080;28;20093;-48
2022/05/06 10:14:58;;;;;;;30.00;20.67;;;18.40;61.50;;;;;;4990153;28;20460;-51
2022/05/06 10:17:57;;;;;;;24.48;19.38;;;18.40;60.70;;;;;;4997393;28;20404;-48
2022/05/06 10:20:36;;;;;;;30.08;21.95;;;18.50;60.00;;;;;;4981500;28;20066;-48
2022/05/06 10:23:08;;;;;;;30.38;22.38;;;18.50;60.00;;;;;;4983716;28;20050;-52
2022/05/06 10:25:41;;;;;;;27.33;20.65;;;18.50;60.10;;;;;;4975023;28;20072;-47
2022/05/06 10:34:22;;;;;;;26.38;19.70;;;18.70;59.40;;;;;;4986665;28;20057;-46
2022/05/06 10:36:53;;;;;;;27.08;20.15;;;18.80;58.60;;;;;;4991802;28;20077;-47
2022/05/06 10:39:32;;;;;;;29.00;20.20;;;18.80;58.40;;;;;;4988740;28;20039;-48
2022/05/06 10:42:12;;;;;;;27.85;20.27;;;18.90;58.20;;;;;;4990569;28;20053;-48
2022/05/06 10:44:44;;;;;;;27.70;20.33;;;18.90;57.50;;;;;;4988860;28;20490;-48
2022/05/06 10:47:13;;;;;;;29.33;20.33;;;19.00;59.20;;;;;;4989420;28;20046;-46
2022/05/06 10:49:42;;;;;;;26.70;19.58;;;19.10;58.70;;;;;;4989721;28;20142;-51
2022/05/06 10:52:22;;;;;;;26.20;19.63;;;19.10;58.30;;;;;;4993407;28;20502;-47
2022/05/06 10:54:56;;;;;;;26.73;18.08;;;19.20;58.50;;;;;;4991961;28;20065;-46
2022/05/06 10:57:26;;;;;;;24.27;18.42;;;19.20;57.80;;;;;;4991924;28;20038;-46
2022/05/06 11:00:02;;;;;;;24.05;17.83;;;19.30;57.10;;;;;;4994634;28;20058;-47
2022/05/06 11:02:36;;;;;;;24.83;19.45;;;19.30;56.50;;;;;;4989975;28;20038;-45
2022/05/06 11:05:09;;;;;;;26.58;19.23;;;19.40;57.10;;;;;;4974575;28;20499;-51
2022/05/06 11:07:41;;;;;;;25.98;20.75;;;19.50;56.60;;;;;;4989565;28;20037;-49
2022/05/06 11:10:21;;;;;;;26.88;19.30;;;19.50;56.10;;;;;;4998017;28;20038;-51
2022/05/06 11:12:51;;;;;;;26.80;20.20;;;19.60;56.00;;;;;;4992137;28;20093;-48
2022/05/06 11:15:21;;;;;;;36.40;22.80;;;19.70;56.20;;;;;;5002568;28;20082;-50
2022/05/06 11:17:49;;;;;;;25.58;19.08;;;19.80;56.50;;;;;;4991566;28;20542;-49
2022/05/06 11:20:31;;;;;;;26.48;20.67;;;19.80;56.30;;;;;;4992448;28;20161;-47
2022/05/06 11:23:11;;;;;;;27.67;19.95;;;19.90;56.10;;;;;;4992840;28;20118;-48
2022/05/06 11:25:42;;;;;;;29.83;20.13;;;20.00;55.70;;;;;;4990240;28;21308;-49
2022/05/06 11:28:17;;;;;;;25.05;19.40;;;20.10;56.10;;;;;;4988869;28;20049;-47
2022/05/06 11:30:46;;;;;;;24.52;18.73;;;20.10;55.30;;;;;;5001106;28;20047;-50
2022/05/06 11:33:27;;;;;;;26.40;20.33;;;20.20;55.50;;;;;;4997296;28;20406;-48
2022/05/06 11:36:01;;;;;;;23.27;18.40;;;20.30;55.00;;;;;;4991469;28;20073;-50
2022/05/06 11:38:40;;;;;;;25.80;19.17;;;20.40;55.40;;;;;;4974480;28;20047;-50
2022/05/06 11:41:11;;;;;;;24.80;18.30;;;20.50;54.70;;;;;;4986423;28;20081;-47
2022/05/06 11:43:40;;;;;;;29.23;20.55;;;20.70;54.30;;;;;;5003433;28;20046;-50
2022/05/06 11:49:25;;;;;;;25.13;19.85;;;21.00;53.50;;;;;;4990506;28;20056;-51
2022/05/06 11:52:04;;;;;;;28.80;21.13;;;21.10;53.00;;;;;;4993390;28;20097;-49
2022/05/06 11:54:31;;;;;;;;;;;21.30;52.60;;;;;;4985534;28;20440;-51
2022/05/06 11:57:01;;;;;;;24.48;17.38;;;21.40;53.60;;;;;;5000215;28;19921;-52
2022/05/06 11:59:32;;;;;;;19.02;16.40;;;21.50;52.80;;;;;;5003915;28;20052;-51
2022/05/06 12:02:09;;;;;;;19.92;16.02;;;21.60;53.30;;;;;;4987276;28;20050;-49
2022/05/06 12:04:41;;;;;;;21.17;15.15;;;21.80;52.00;;;;;;4970985;28;20042;-47
2022/05/06 12:07:08;;;;;;;19.23;13.75;;;21.80;51.10;;;;;;4994870;28;20058;-47
2022/05/06 12:09:44;;;;;;;17.92;14.32;;;22.00;50.10;;;;;;4999381;28;20058;-48
2022/05/06 12:12:13;;;;;;;17.48;14.20;;;22.10;48.10;;;;;;4979586;28;20089;-47
2022/05/06 12:14:43;;;;;;;20.25;15.68;;;22.20;49.40;;;;;;5004626;28;20041;-47
2022/05/06 12:17:14;;;;;;;19.17;16.02;;;22.20;48.70;;;;;;4989132;28;20100;-50
2022/05/06 12:19:45;;;;;;;21.80;18.10;;;22.40;49.20;;;;;;5001524;28;20138;-49
2022/05/06 12:22:23;;;;;;;23.90;19.15;;;22.40;47.70;;;;;;4989751;28;20046;-47
2022/05/06 12:24:58;;;;;;;21.15;16.60;;;22.40;47.10;;;;;;4995796;28;20054;-46
2022/05/06 12:27:37;;;;;;;19.20;15.38;;;22.40;49.00;;;;;;5011289;28;20117;-49
2022/05/06 12:30:15;;;;;;;20.15;16.67;;;22.40;47.90;;;;;;4991729;28;20038;-48
2022/05/06 12:33:18;;;;;;;19.20;14.10;;;22.50;48.00;;;;;;4995980;28;20038;-50
2022/05/06 12:35:59;;;;;;;16.17;12.25;;;22.50;47.60;;;;;;4988733;28;20034;-51
2022/05/06 12:38:27;;;;;;;18.77;13.10;;;22.70;46.30;;;;;;5004084;28;20034;-51
2022/05/06 12:40:53;;;;;;;15.70;12.25;;;22.70;46.20;;;;;;4992780;28;20050;-48
2022/05/06 12:43:27;;;;;;;16.52;11.25;;;22.80;46.00;;;;;;4991806;28;20093;-49
2022/05/06 12:45:59;;;;;;;13.05;10.50;;;22.90;44.60;;;;;;4986987;28;20041;-47
2022/05/06 12:51:18;;;;;;;12.45;10.65;;;23.20;44.60;;;;;;4989518;28;20497;-50
2022/05/06 12:53:45;;;;;;;18.08;13.80;;;23.30;44.70;;;;;;5003106;28;20041;-47
2022/05/06 12:56:27;;;;;;;23.67;15.68;;;23.40;45.40;;;;;;4998789;28;20046;-47
2022/05/06 12:58:53;;;;;;;15.75;11.82;;;23.60;44.30;;;;;;4993764;28;20097;-49
2022/05/06 13:01:21;;;;;;;16.70;12.25;;;23.70;44.20;;;;;;4987575;28;20046;-51
2022/05/06 13:03:47;;;;;;;17.55;15.27;;;23.90;44.20;;;;;;4987467;28;20142;-46
2022/05/06 13:06:17;;;;;;;18.13;13.95;;;24.10;44.60;;;;;;4996699;28;20407;-50
2022/05/06 13:08:44;;;;;;;16.27;13.38;;;24.20;44.30;;;;;;5010771;28;20490;-48
2022/05/06 13:11:12;;;;;;;15.30;13.27;;;24.40;43.10;;;;;;4975915;28;20046;-48
2022/05/06 13:13:40;;;;;;;14.05;11.85;;;24.50;42.30;;;;;;4970924;28;20095;-48
2022/05/06 13:16:14;;;;;;;15.80;10.77;;;24.70;43.00;;;;;;4974829;28;20042;-49
2022/05/06 13:18:47;;;;;;;13.68;10.02;;;24.80;41.60;;;;;;4971594;28;20510;-51
2022/05/06 13:21:14;;;;;;;13.63;11.43;;;25.00;41.50;;;;;;4995143;28;20162;-47
2022/05/06 13:23:42;;;;;;;13.48;10.23;;;25.10;41.00;;;;;;4960604;28;20050;-49
2022/05/06 13:26:10;;;;;;;15.68;11.65;;;25.30;40.70;;;;;;4978474;28;20522;-48
2022/05/06 13:28:37;;;;;;;9.68;8.23;;;25.60;40.10;;;;;;4965859;28;20067;-50
2022/05/06 13:31:03;;;;;;;8.85;7.63;;;25.80;40.30;;;;;;4984723;28;20125;-48
2022/05/06 13:33:31;;;;;;;8.93;7.97;;;26.30;40.40;;;;;;4978224;28;20141;-51
2022/05/06 13:35:59;;;;;;;10.02;8.25;;;27.00;40.50;;;;;;4973457;28;20417;-51
2022/05/06 13:38:26;;;;;;;10.60;8.90;;;27.80;40.60;;;;;;4967560;28;20039;-51
2022/05/06 13:40:53;;;;;;;8.48;7.20;;;28.90;40.60;;;;;;4997895;28;20115;-52